Time;durP1;ratioP1;P1;durP2;ratioP2;P2;SDS_P1;SDS_P2;PMS_P1;PMS_P2;Temp;Humidity;BMP_temperature;BMP_pressure;BME280_temperature;BME280_humidity;BME280_pressure;Samples;Min_cycle;Max_cycle;Signal;HPM_P1;HPM_P2
2023/06/29 00:00:45;;;;;;;1.70;1.50;;;;;;;22.52;52.63;101487.88;5008275;28;97080;-83
2023/06/29 00:03:10;;;;;;;1.87;1.53;;;;;;;22.47;52.72;101480.38;4988830;28;99190;-83
2023/06/29 00:05:36;;;;;;;1.57;1.47;;;;;;;22.47;52.58;101457.94;5004698;28;97668;-83
2023/06/29 00:08:02;;;;;;;2.30;1.67;;;;;;;22.46;52.70;101456.44;5005516;28;96702;-83
2023/06/29 00:10:28;;;;;;;1.70;1.60;;;;;;;22.42;52.57;101484.84;4994342;28;97134;-82
2023/06/29 00:12:54;;;;;;;1.50;1.40;;;;;;;22.37;52.59;101480.91;5005350;28;97282;-83
2023/06/29 00:15:19;;;;;;;1.57;1.40;;;;;;;22.39;52.74;101446.69;4986437;28;99893;-82
2023/06/29 00:17:47;;;;;;;3.10;1.97;;;;;;;22.38;52.72;101451.56;5002550;28;97147;-81
2023/06/29 00:20:13;;;;;;;2.47;1.70;;;;;;;22.36;52.66;101448.56;4982513;28;97049;-82
2023/06/29 00:22:40;;;;;;;2.17;1.63;;;;;;;22.35;52.91;101465.94;5005317;28;98623;-82
2023/06/29 00:25:09;;;;;;;2.00;1.90;;;;;;;22.37;52.86;101430.44;5007569;28;97759;-82
2023/06/29 00:27:35;;;;;;;2.07;1.70;;;;;;;22.37;52.92;101471.75;4993591;28;98117;-84
2023/06/29 00:30:00;;;;;;;1.70;1.60;;;;;;;22.33;52.92;101458.09;5000057;28;97190;-82
2023/06/29 00:32:25;;;;;;;3.47;1.80;;;;;;;22.41;52.79;101474.19;4993807;28;100433;-82
2023/06/29 00:34:51;;;;;;;2.37;1.80;;;;;;;22.30;52.91;101450.06;4989347;28;100003;-82
2023/06/29 00:37:16;;;;;;;1.83;1.70;;;;;;;22.36;52.99;101440.16;4997352;28;97049;-82
2023/06/29 00:39:42;;;;;;;2.00;1.87;;;;;;;22.35;53.00;101444.25;4985350;28;96751;-82
2023/06/29 00:42:08;;;;;;;1.70;1.60;;;;;;;22.34;53.13;101430.81;4986136;28;100618;-82
2023/06/29 00:44:33;;;;;;;1.53;1.43;;;;;;;22.32;53.17;101479.00;5002516;28;98724;-81
2023/06/29 00:46:59;;;;;;;1.73;1.63;;;;;;;22.25;53.14;101423.69;5004907;28;97185;-82
2023/06/29 00:49:24;;;;;;;1.83;1.73;;;;;;;22.23;53.09;101445.91;4992893;28;96818;-80
2023/06/29 00:51:52;;;;;;;2.40;2.20;;;;;;;22.30;53.03;101458.47;4990880;28;100496;-80
2023/06/29 00:54:18;;;;;;;1.93;1.83;;;;;;;22.23;53.33;101459.94;4992002;28;99547;-82
2023/06/29 00:56:45;;;;;;;1.77;1.67;;;;;;;22.20;53.43;101402.16;5000906;28;96815;-82
2023/06/29 00:59:10;;;;;;;2.03;1.93;;;;;;;22.19;53.47;101397.84;5001929;28;96763;-82
2023/06/29 01:01:38;;;;;;;2.60;2.07;;;;;;;22.28;53.35;101436.56;5003298;28;97796;-82
2023/06/29 01:04:04;;;;;;;1.93;1.70;;;;;;;22.30;53.69;101470.41;4992352;28;98950;-83
2023/06/29 01:06:33;;;;;;;3.57;2.10;;;;;;;22.18;53.40;101410.38;4990649;28;97216;-83
2023/06/29 01:09:05;;;;;;;1.73;1.63;;;;;;;22.19;53.57;101388.72;5001959;28;96800;-81
2023/06/29 01:11:36;;;;;;;1.90;1.80;;;;;;;22.16;53.74;101413.00;4983088;28;100881;-82
2023/06/29 01:14:05;;;;;;;1.90;1.70;;;;;;;22.17;53.48;101385.72;5002030;28;99272;-83
2023/06/29 01:16:32;;;;;;;2.10;2.00;;;;;;;22.18;53.53;101418.78;4987119;28;97316;-83
2023/06/29 01:19:00;;;;;;;2.57;2.30;;;;;;;22.17;53.58;101462.13;4997220;28;96760;-82
2023/06/29 01:21:28;;;;;;;2.13;2.03;;;;;;;22.14;53.55;101423.25;4985138;28;99418;-82
2023/06/29 01:23:56;;;;;;;2.33;2.00;;;;;;;22.21;53.74;101442.88;5003695;28;97734;-82
2023/06/29 01:26:22;;;;;;;2.47;2.27;;;;;;;22.10;53.68;101387.19;5003813;28;97028;-83
2023/06/29 01:28:51;;;;;;;2.20;1.80;;;;;;;22.08;53.86;101415.00;4988709;28;96784;-79
2023/06/29 01:31:17;;;;;;;2.23;2.03;;;;;;;22.07;53.82;101379.88;5004864;28;98086;-83
2023/06/29 01:33:42;;;;;;;2.17;2.00;;;;;;;22.07;53.99;101393.91;4998076;28;97919;-81
2023/06/29 01:36:20;;;;;;;3.93;2.40;;;;;;;22.07;54.51;101419.13;4984570;28;96880;-82
2023/06/29 01:38:56;;;;;;;2.20;2.00;;;;;;;21.99;54.51;101404.34;4998794;28;97228;-83
2023/06/29 01:41:24;;;;;;;3.07;1.90;;;;;;;22.08;53.97;101409.38;4989963;28;99297;-82
2023/06/29 01:43:51;;;;;;;4.57;2.27;;;;;;;22.00;54.34;101422.63;5007080;28;97646;-82
2023/06/29 01:46:19;;;;;;;2.80;2.33;;;;;;;22.02;54.63;101377.97;5004841;28;97349;-82
2023/06/29 01:48:45;;;;;;;2.07;1.97;;;;;;;21.96;54.62;101427.84;5002502;28;98545;-83
2023/06/29 01:51:11;;;;;;;2.30;2.10;;;;;;;21.98;54.59;101377.59;4980771;28;99657;-82
2023/06/29 01:53:37;;;;;;;1.83;1.73;;;;;;;21.99;54.59;101395.94;4991681;28;99638;-82
2023/06/29 01:56:03;;;;;;;1.97;1.87;;;;;;;21.89;54.69;101364.13;4990422;28;96585;-82
2023/06/29 01:58:28;;;;;;;2.00;1.90;;;;;;;21.86;54.89;101412.88;4999914;28;97280;-82
2023/06/29 02:00:54;;;;;;;1.73;1.63;;;;;;;21.95;54.95;101417.22;4990249;28;99183;-82
2023/06/29 02:03:19;;;;;;;3.10;2.33;;;;;;;21.91;54.97;101411.22;5002958;28;96966;-82
2023/06/29 02:05:44;;;;;;;3.03;1.53;;;;;;;21.91;54.87;101386.00;5002741;28;97139;-83
2023/06/29 02:08:10;;;;;;;6.07;2.30;;;;;;;21.95;55.00;101389.91;4983326;28;96884;-81
2023/06/29 02:10:35;;;;;;;2.10;2.00;;;;;;;21.91;55.06;101380.38;5003525;28;98681;-82
2023/06/29 02:13:01;;;;;;;2.30;2.10;;;;;;;21.89;55.15;101400.53;5001572;28;97630;-82
2023/06/29 02:15:26;;;;;;;1.80;1.70;;;;;;;21.93;55.15;101408.59;4983359;28;97293;-80
2023/06/29 02:17:51;;;;;;;1.77;1.67;;;;;;;21.90;55.10;101379.63;5006609;28;97121;-83
2023/06/29 02:20:17;;;;;;;2.33;2.20;;;;;;;21.91;55.19;101400.00;4991020;28;99193;-83
2023/06/29 02:22:43;;;;;;;2.60;2.27;;;;;;;21.94;55.08;101385.63;4986500;28;100112;-83
2023/06/29 02:25:10;;;;;;;2.90;2.03;;;;;;;22.00;55.17;101371.44;5001956;28;97622;-83
2023/06/29 02:27:36;;;;;;;2.17;2.07;;;;;;;21.96;55.05;101382.25;5000800;28;96616;-83
2023/06/29 02:30:01;;;;;;;2.23;2.00;;;;;;;21.95;55.18;101398.31;4983959;28;100635;-83
2023/06/29 02:32:27;;;;;;;2.20;2.00;;;;;;;21.93;55.15;101369.38;4999143;28;97107;-82
2023/06/29 02:34:52;;;;;;;2.37;2.27;;;;;;;21.97;54.81;101375.38;4997021;28;97327;-83
2023/06/29 02:37:17;;;;;;;2.30;2.10;;;;;;;21.92;55.15;101379.06;4999723;28;96935;-82
2023/06/29 02:39:43;;;;;;;2.43;2.23;;;;;;;21.86;55.14;101379.25;4984504;28;99209;-83
2023/06/29 02:42:08;;;;;;;6.10;2.47;;;;;;;21.81;55.28;101354.91;4998982;28;97326;-83
2023/06/29 02:44:33;;;;;;;2.30;1.97;;;;;;;21.81;55.47;101374.53;4994551;28;97002;-83
2023/06/29 02:46:59;;;;;;;2.43;2.20;;;;;;;21.83;55.58;101352.31;4984753;28;97036;-83
2023/06/29 02:49:24;;;;;;;1.70;1.60;;;;;;;21.82;55.44;101372.47;4986256;28;99520;-83
2023/06/29 02:51:49;;;;;;;3.10;2.13;;;;;;;21.85;55.63;101348.97;4995748;28;99988;-82
2023/06/29 02:54:15;;;;;;;2.90;2.10;;;;;;;21.92;55.71;101367.88;5000559;28;98759;-83
2023/06/29 02:56:40;;;;;;;2.10;2.00;;;;;;;21.92;55.73;101398.69;5000984;28;97330;-83
2023/06/29 02:59:05;;;;;;;2.30;1.90;;;;;;;21.92;55.72;101357.41;5003933;28;96813;-82
2023/06/29 03:01:31;;;;;;;2.17;2.03;;;;;;;21.85;55.84;101382.59;4999709;28;97360;-83
2023/06/29 03:03:57;;;;;;;2.87;2.53;;;;;;;21.80;55.69;101361.81;4994419;28;96963;-84
2023/06/29 03:06:22;;;;;;;2.60;2.40;;;;;;;21.81;55.89;101354.91;4990200;28;96963;-83
2023/06/29 03:08:48;;;;;;;2.20;2.10;;;;;;;21.78;55.86;101367.22;5000038;28;97580;-82
2023/06/29 03:11:13;;;;;;;4.67;2.60;;;;;;;21.81;55.90;101374.53;5002597;28;97740;-82
2023/06/29 03:13:39;;;;;;;2.57;2.20;;;;;;;21.76;55.90;101358.63;4986749;28;97199;-82
2023/06/29 03:16:04;;;;;;;2.27;2.13;;;;;;;21.73;55.78;101340.13;4998072;28;96763;-82
2023/06/29 03:18:30;;;;;;;5.10;2.43;;;;;;;21.80;55.86;101369.47;5002191;28;97192;-81
2023/06/29 03:20:56;;;;;;;2.13;2.00;;;;;;;21.63;55.69;101369.94;4988331;28;98946;-82
2023/06/29 03:23:21;;;;;;;2.20;2.00;;;;;;;21.62;56.01;101382.47;4987435;28;97062;-82
2023/06/29 03:25:47;;;;;;;2.10;1.97;;;;;;;21.62;55.92;101341.19;5006149;28;97193;-83
2023/06/29 03:28:12;;;;;;;2.73;2.47;;;;;;;21.63;55.84;101397.94;4993838;28;100278;-82
2023/06/29 03:30:37;;;;;;;1.93;1.83;;;;;;;21.60;56.02;101396.28;5006495;28;98610;-81
2023/06/29 03:33:03;;;;;;;2.03;1.93;;;;;;;21.62;56.13;101365.66;5007351;28;96695;-81
2023/06/29 03:35:28;;;;;;;2.97;2.40;;;;;;;21.58;56.27;101352.00;4984416;28;96841;-82
2023/06/29 03:37:54;;;;;;;2.27;2.17;;;;;;;21.60;56.29;101357.06;4991484;28;100860;-82
2023/06/29 03:40:19;;;;;;;2.93;2.20;;;;;;;21.58;56.35;101366.00;5001491;28;98269;-82
2023/06/29 03:42:45;;;;;;;2.87;2.67;;;;;;;21.51;56.24;101365.97;4996833;28;97611;-84
2023/06/29 03:45:10;;;;;;;3.07;2.80;;;;;;;21.62;56.24;101351.66;4985335;28;97507;-82
2023/06/29 03:47:36;;;;;;;2.80;2.30;;;;;;;21.60;56.36;101385.06;4975177;28;100659;-81
2023/06/29 03:50:01;;;;;;;3.37;2.63;;;;;;;21.61;56.35;101359.31;4981867;28;101655;-83
2023/06/29 03:52:26;;;;;;;2.70;2.50;;;;;;;21.61;56.25;101386.56;4994956;28;97236;-83
2023/06/29 03:54:52;;;;;;;3.80;2.67;;;;;;;21.63;56.34;101353.13;4996454;28;98668;-81
2023/06/29 03:57:17;;;;;;;2.63;2.50;;;;;;;21.60;56.23;101382.28;4984527;28;100186;-82
2023/06/29 03:59:42;;;;;;;2.83;2.63;;;;;;;21.55;56.25;101360.75;5000042;28;96874;-82
2023/06/29 04:02:08;;;;;;;2.93;2.50;;;;;;;21.61;56.44;101392.16;4996823;28;97278;-84
2023/06/29 04:04:33;;;;;;;2.33;2.20;;;;;;;21.58;56.37;101345.63;4980488;28;96777;-82
2023/06/29 04:06:59;;;;;;;2.83;2.57;;;;;;;21.57;56.54;101347.72;5000708;28;97076;-82
2023/06/29 04:09:24;;;;;;;2.50;2.30;;;;;;;21.70;56.45;101360.06;5001634;28;97219;-82
2023/06/29 04:11:49;;;;;;;3.37;2.67;;;;;;;21.69;56.42;101339.00;4997895;28;96671;-82
2023/06/29 04:14:15;;;;;;;3.37;3.07;;;;;;;21.70;56.59;101344.03;4978379;28;97636;-81
2023/06/29 04:16:40;;;;;;;2.53;2.33;;;;;;;21.75;56.61;101351.53;5000220;28;98820;-85
2023/06/29 04:19:05;;;;;;;3.47;2.80;;;;;;;21.70;56.60;101354.47;5003727;28;97490;-81
2023/06/29 04:21:31;;;;;;;2.50;2.30;;;;;;;21.73;56.49;101353.38;5000800;28;97002;-83
2023/06/29 04:23:56;;;;;;;2.60;2.47;;;;;;;21.76;56.55;101347.41;4998919;28;96919;-81
2023/06/29 04:26:22;;;;;;;2.30;2.20;;;;;;;21.74;56.65;101361.22;5001967;28;98104;-82
2023/06/29 04:28:48;;;;;;;4.20;2.83;;;;;;;21.82;56.58;101330.44;4991639;28;99019;-83
2023/06/29 04:31:14;;;;;;;2.40;2.20;;;;;;;21.77;56.52;101367.78;5004522;28;96772;-82
2023/06/29 04:33:39;;;;;;;2.33;2.20;;;;;;;21.85;56.64;101366.53;4997471;28;97543;-82
2023/06/29 04:36:04;;;;;;;2.40;2.20;;;;;;;21.90;56.66;101340.41;4986914;28;99564;-82
2023/06/29 04:38:31;;;;;;;2.40;2.20;;;;;;;21.88;56.71;101342.25;5001745;28;96784;-82
2023/06/29 04:41:03;;;;;;;3.20;2.90;;;;;;;21.97;56.72;101366.97;5003151;28;96634;-82
2023/06/29 04:43:32;;;;;;;2.47;2.37;;;;;;;21.98;56.80;101321.56;4996403;28;97196;-82
2023/06/29 04:45:59;;;;;;;2.87;2.63;;;;;;;22.03;56.71;101336.69;4991465;28;99248;-82
2023/06/29 04:48:28;;;;;;;3.73;3.40;;;;;;;22.06;56.78;101335.59;5006289;28;97995;-82
2023/06/29 04:51:02;;;;;;;3.67;3.40;;;;;;;22.05;56.76;101379.69;4990373;28;97173;-82
2023/06/29 04:53:28;;;;;;;3.73;3.30;;;;;;;22.15;56.61;101341.41;5002217;28;96853;-83
2023/06/29 04:55:54;;;;;;;3.70;3.40;;;;;;;22.18;56.80;101337.50;4990757;28;99181;-82
2023/06/29 04:58:19;;;;;;;4.90;3.17;;;;;;;22.20;56.63;101339.72;4986097;28;99486;-82
2023/06/29 05:00:44;;;;;;;3.20;3.00;;;;;;;22.23;56.62;101336.59;4985529;28;96940;-82
2023/06/29 05:03:10;;;;;;;4.40;4.00;;;;;;;22.26;56.61;101332.63;4984907;28;100591;-83
2023/06/29 05:05:35;;;;;;;4.67;3.77;;;;;;;22.31;56.42;101339.38;4984655;28;100280;-82
2023/06/29 05:08:00;;;;;;;3.73;3.43;;;;;;;22.28;56.38;101338.44;4997696;28;98456;-82
2023/06/29 05:10:26;;;;;;;3.43;3.23;;;;;;;22.35;56.62;101325.75;5002997;28;97208;-83
2023/06/29 05:12:52;;;;;;;4.03;3.70;;;;;;;22.36;56.60;101333.63;4997915;28;96824;-81
2023/06/29 05:15:17;;;;;;;3.63;3.33;;;;;;;22.43;56.57;101342.59;4982601;28;100426;-83
2023/06/29 05:17:43;;;;;;;3.70;3.40;;;;;;;22.40;56.43;101338.84;5001794;28;97694;-82
2023/06/29 05:20:10;;;;;;;3.73;3.23;;;;;;;22.45;56.31;101321.09;4978132;28;96859;-81
2023/06/29 05:22:36;;;;;;;4.13;3.73;;;;;;;22.44;56.40;101311.16;4983069;28;97271;-81
2023/06/29 05:25:01;;;;;;;4.20;3.80;;;;;;;22.43;56.41;101345.41;4985077;28;99229;-81
2023/06/29 05:27:26;;;;;;;8.03;3.90;;;;;;;22.55;56.25;101368.94;5002730;28;97047;-82
2023/06/29 05:29:52;;;;;;;4.30;4.00;;;;;;;22.59;56.53;101313.22;4999130;28;99038;-82
2023/06/29 05:32:17;;;;;;;4.33;3.30;;;;;;;22.63;56.48;101310.84;5000527;28;96715;-82
2023/06/29 05:34:43;;;;;;;5.67;3.97;;;;;;;22.68;56.34;101304.28;5000155;28;97818;-82
2023/06/29 05:37:08;;;;;;;4.07;3.70;;;;;;;22.70;56.30;101299.59;4987340;28;98644;-83
2023/06/29 05:39:33;;;;;;;4.80;4.20;;;;;;;22.73;56.41;101323.75;4986698;28;96699;-82
2023/06/29 05:41:59;;;;;;;4.80;4.20;;;;;;;22.77;56.07;101310.09;4999870;28;96549;-82
2023/06/29 05:44:24;;;;;;;5.00;4.47;;;;;;;22.81;56.25;101318.13;4982140;28;99194;-84
2023/06/29 05:46:49;;;;;;;4.40;4.00;;;;;;;22.82;56.20;101314.00;4985537;28;100150;-83
2023/06/29 05:49:15;;;;;;;5.50;4.40;;;;;;;22.87;55.93;101311.00;4988611;28;96986;-83
2023/06/29 05:51:42;;;;;;;6.23;4.67;;;;;;;22.91;56.15;101314.19;5005769;28;100338;-82
2023/06/29 05:54:07;;;;;;;5.10;3.90;;;;;;;22.96;56.08;101306.88;4997848;28;96818;-83
2023/06/29 05:56:33;;;;;;;5.13;4.53;;;;;;;22.97;56.20;101300.72;5005563;28;97356;-83
2023/06/29 05:58:58;;;;;;;5.23;3.87;;;;;;;23.01;56.16;101301.09;4985617;28;96862;-83
2023/06/29 06:01:24;;;;;;;5.43;4.93;;;;;;;23.06;56.10;101310.63;4993693;28;96692;-85
2023/06/29 06:03:49;;;;;;;5.60;4.37;;;;;;;23.08;55.97;101317.16;5004167;28;97733;-83
2023/06/29 06:06:15;;;;;;;5.90;5.00;;;;;;;23.10;55.77;101299.75;4989271;28;100340;-83
2023/06/29 06:08:40;;;;;;;5.43;5.00;;;;;;;23.18;55.89;101316.56;4987566;28;96857;-83
2023/06/29 06:11:06;;;;;;;5.97;5.03;;;;;;;23.19;55.65;101301.22;5005359;28;96808;-84
2023/06/29 06:13:31;;;;;;;4.97;4.47;;;;;;;23.23;55.61;101307.94;5002765;28;101990;-83
2023/06/29 06:15:56;;;;;;;6.00;5.40;;;;;;;23.26;55.60;101301.22;4999576;28;97659;-82
2023/06/29 06:18:22;;;;;;;5.23;4.73;;;;;;;23.32;55.43;101306.63;5002071;28;96860;-82
2023/06/29 06:20:47;;;;;;;5.80;4.93;;;;;;;23.34;55.33;101321.63;4984608;28;96913;-81
2023/06/29 06:23:12;;;;;;;5.70;5.20;;;;;;;23.37;55.36;101300.81;4983866;28;100442;-82
2023/06/29 06:25:38;;;;;;;6.23;5.70;;;;;;;23.39;55.28;101315.06;4998308;28;98498;-83
2023/06/29 06:28:04;;;;;;;7.23;5.27;;;;;;;23.38;55.18;101321.97;4985556;28;97052;-83
2023/06/29 06:30:29;;;;;;;5.20;4.80;;;;;;;23.46;55.26;101313.53;5000961;28;97564;-82
2023/06/29 06:32:54;;;;;;;5.07;4.60;;;;;;;23.49;55.14;101315.97;4988323;28;100860;-83
2023/06/29 06:35:20;;;;;;;4.87;4.47;;;;;;;23.55;55.24;101301.69;5004471;28;96779;-83
2023/06/29 06:37:45;;;;;;;6.37;5.40;;;;;;;23.57;55.30;101308.25;4991577;28;96982;-84
2023/06/29 06:40:11;;;;;;;5.53;5.03;;;;;;;23.62;54.91;101295.28;4998122;28;96847;-83
2023/06/29 06:42:38;;;;;;;6.43;5.80;;;;;;;23.64;54.92;101306.72;5002581;28;97653;-82
2023/06/29 06:45:04;;;;;;;6.63;6.03;;;;;;;23.61;54.83;101302.97;5002543;28;97850;-84
2023/06/29 06:47:31;;;;;;;6.10;5.50;;;;;;;23.63;54.64;101291.91;4986921;28;97013;-84
2023/06/29 06:49:57;;;;;;;8.93;5.67;;;;;;;23.65;54.85;101283.69;4988664;28;97420;-84
2023/06/29 06:52:22;;;;;;;6.77;5.67;;;;;;;23.69;54.56;101289.66;5002185;28;99094;-83
2023/06/29 06:54:50;;;;;;;6.40;5.17;;;;;;;23.69;54.49;101309.31;4991839;28;96596;-83
2023/06/29 06:57:16;;;;;;;6.80;5.63;;;;;;;23.75;54.40;101290.19;4998834;28;96554;-84
2023/06/29 06:59:41;;;;;;;5.90;5.40;;;;;;;23.76;54.47;101286.03;5005472;28;96802;-83
2023/06/29 07:02:07;;;;;;;6.07;5.47;;;;;;;23.80;54.52;101303.28;4986837;28;100136;-84
2023/06/29 07:04:32;;;;;;;6.37;5.77;;;;;;;23.84;54.37;101308.50;4986823;28;100115;-84
2023/06/29 07:06:57;;;;;;;6.00;5.33;;;;;;;23.90;54.58;101309.03;4993528;28;96885;-83
2023/06/29 07:09:23;;;;;;;6.43;5.63;;;;;;;23.96;54.33;101308.81;4991736;28;100211;-82
2023/06/29 07:11:48;;;;;;;5.97;5.37;;;;;;;23.97;54.27;101291.38;4995456;28;99569;-81
2023/06/29 07:14:15;;;;;;;6.53;5.43;;;;;;;24.02;54.06;101295.28;4995099;28;99042;-84
2023/06/29 07:16:41;;;;;;;6.57;5.53;;;;;;;24.07;54.24;101302.78;5001099;28;97145;-83
2023/06/29 07:19:08;;;;;;;6.60;5.90;;;;;;;24.12;54.15;101296.19;5004510;28;96971;-83
2023/06/29 07:21:34;;;;;;;5.63;4.90;;;;;;;24.13;53.96;101301.25;4983164;28;100131;-83
2023/06/29 07:24:00;;;;;;;7.20;6.50;;;;;;;24.15;53.98;101290.16;4988862;28;100720;-83
2023/06/29 07:26:27;;;;;;;6.50;5.60;;;;;;;24.17;53.81;101286.78;5004954;28;96805;-84
2023/06/29 07:28:52;;;;;;;7.63;5.60;;;;;;;24.23;54.05;101287.28;4992888;28;96922;-83
2023/06/29 07:31:22;;;;;;;6.60;5.93;;;;;;;24.27;53.60;101288.38;4983209;28;99087;-83
2023/06/29 07:33:47;;;;;;;8.47;5.63;;;;;;;24.30;53.61;101298.50;4989130;28;100145;-83
2023/06/29 07:36:13;;;;;;;7.80;6.00;;;;;;;24.35;53.69;101293.97;4987638;28;96982;-82
2023/06/29 07:38:38;;;;;;;6.20;5.60;;;;;;;24.37;53.54;101283.63;4984020;28;97329;-83
2023/06/29 07:41:05;;;;;;;6.80;5.90;;;;;;;24.38;53.49;101281.53;4989399;28;99523;-83
2023/06/29 07:43:30;;;;;;;7.67;6.40;;;;;;;24.39;53.47;101281.00;5002277;28;96939;-82
2023/06/29 07:45:55;;;;;;;8.07;6.30;;;;;;;24.46;53.78;101282.25;4984785;28;97246;-82
2023/06/29 07:48:21;;;;;;;6.00;5.40;;;;;;;24.54;53.61;101291.38;4985405;28;97354;-84
2023/06/29 07:50:46;;;;;;;8.03;6.50;;;;;;;24.55;53.32;101273.91;4981402;28;100868;-82
2023/06/29 07:53:11;;;;;;;11.23;6.93;;;;;;;24.63;53.13;101279.47;4991361;28;99306;-82
2023/06/29 07:55:37;;;;;;;7.50;6.20;;;;;;;24.67;53.37;101279.81;4986508;28;96841;-83
2023/06/29 07:58:02;;;;;;;7.77;5.80;;;;;;;24.73;53.14;101274.69;5005238;28;97203;-83
2023/06/29 08:00:27;;;;;;;6.73;6.10;;;;;;;24.71;52.86;101279.41;5000416;28;97148;-82
2023/06/29 08:02:53;;;;;;;7.80;6.70;;;;;;;24.73;52.76;101274.69;4992852;28;100461;-83
2023/06/29 08:05:18;;;;;;;7.63;6.93;;;;;;;24.78;53.03;101276.56;4989705;28;101866;-82
2023/06/29 08:07:43;;;;;;;9.33;7.00;;;;;;;24.81;52.65;101269.78;5001930;28;97619;-82
2023/06/29 08:10:09;;;;;;;11.40;7.70;;;;;;;24.85;52.66;101277.81;4988680;28;99599;-83
2023/06/29 08:12:35;;;;;;;7.77;6.47;;;;;;;24.89;52.55;101267.63;4991592;28;100822;-82
2023/06/29 08:15:00;;;;;;;10.17;7.73;;;;;;;24.91;52.32;101250.91;4990181;28;96997;-83
2023/06/29 08:17:25;;;;;;;11.50;7.50;;;;;;;25.01;52.35;101270.69;4989161;28;96689;-83
2023/06/29 08:19:51;;;;;;;9.97;8.30;;;;;;;25.07;52.27;101249.41;4988734;28;100658;-82
2023/06/29 08:22:16;;;;;;;8.73;7.10;;;;;;;25.12;52.48;101256.09;4999405;28;97929;-82
2023/06/29 08:24:41;;;;;;;10.83;8.13;;;;;;;25.20;52.46;101251.16;5002206;28;96932;-84
2023/06/29 08:27:06;;;;;;;10.60;7.97;;;;;;;25.28;52.38;101246.91;5000566;28;97214;-82
2023/06/29 08:29:32;;;;;;;10.97;8.27;;;;;;;25.37;52.19;101256.75;4982907;28;101465;-83
2023/06/29 08:31:57;;;;;;;12.07;7.60;;;;;;;25.42;51.99;101252.19;5003668;28;96640;-83
2023/06/29 08:34:23;;;;;;;11.23;8.37;;;;;;;25.48;51.87;101252.69;4987502;28;97523;-84
2023/06/29 08:36:48;;;;;;;12.10;7.87;;;;;;;25.55;51.85;101272.34;4993634;28;97028;-83
2023/06/29 08:39:13;;;;;;;9.90;8.60;;;;;;;25.56;51.52;101253.34;4999584;28;96962;-83
2023/06/29 08:41:39;;;;;;;11.47;8.50;;;;;;;25.56;51.70;101279.44;5003705;28;99288;-83
2023/06/29 08:44:04;;;;;;;11.50;8.80;;;;;;;25.57;51.44;101263.28;4986873;28;97052;-84
2023/06/29 08:46:31;;;;;;;14.83;9.80;;;;;;;25.60;51.38;101251.59;5000616;28;100369;-83
2023/06/29 08:48:57;;;;;;;9.50;8.50;;;;;;;25.60;51.61;101259.31;4999845;28;97458;-82
2023/06/29 08:51:24;;;;;;;10.67;8.57;;;;;;;25.62;51.55;101259.47;4990859;28;100391;-83
2023/06/29 08:53:50;;;;;;;10.60;8.20;;;;;;;25.62;51.50;101260.19;5001969;28;97102;-83
2023/06/29 08:56:17;;;;;;;12.27;8.93;;;;;;;25.62;51.44;101256.66;4988469;28;97416;-79
2023/06/29 08:58:43;;;;;;;9.80;8.10;;;;;;;25.60;51.38;101262.88;5000593;28;97682;-82
2023/06/29 09:01:09;;;;;;;12.13;8.60;;;;;;;25.64;51.44;101285.00;4988757;28;98864;-83
2023/06/29 09:03:36;;;;;;;12.50;9.63;;;;;;;25.68;51.33;101257.88;5004777;28;97089;-83
2023/06/29 09:06:03;;;;;;;11.40;8.50;;;;;;;25.76;51.24;101260.59;5002340;28;97017;-83
2023/06/29 09:08:28;;;;;;;10.60;8.83;;;;;;;25.80;51.30;101294.72;5000570;28;97201;-82
2023/06/29 09:10:55;;;;;;;11.43;8.30;;;;;;;25.86;51.38;101289.59;4999650;28;97389;-82
2023/06/29 09:13:26;;;;;;;11.30;7.90;;;;;;;25.90;50.94;101293.47;4986859;28;97410;-82
2023/06/29 09:15:54;;;;;;;13.17;8.40;;;;;;;25.89;51.01;101232.78;4987852;28;97050;-84
2023/06/29 09:18:24;;;;;;;12.70;8.63;;;;;;;25.99;50.61;101242.00;4997759;28;98325;-82
2023/06/29 09:20:55;;;;;;;10.27;7.77;;;;;;;26.07;50.67;101256.00;4989408;28;99308;-83
2023/06/29 09:23:21;;;;;;;11.00;8.77;;;;;;;26.17;50.47;101253.25;5001820;28;97046;-83
2023/06/29 09:25:48;;;;;;;11.33;8.87;;;;;;;26.20;50.50;101247.19;4996510;28;96878;-82
2023/06/29 09:28:14;;;;;;;10.40;8.90;;;;;;;26.23;50.38;101251.66;4996045;28;97619;-83
2023/06/29 09:30:41;;;;;;;10.97;8.93;;;;;;;26.27;50.45;101251.22;4998115;28;97648;-83
2023/06/29 09:33:10;;;;;;;9.57;7.63;;;;;;;26.43;50.45;101236.25;4986065;28;97183;-82
2023/06/29 09:35:43;;;;;;;9.80;7.77;;;;;;;26.58;50.21;101249.38;4999738;28;97345;-82
2023/06/29 09:38:08;;;;;;;10.57;8.30;;;;;;;26.72;49.97;101234.22;4995398;28;96779;-82
2023/06/29 09:40:51;;;;;;;11.87;8.57;;;;;;;26.84;49.30;101233.69;4996373;28;97539;-83
2023/06/29 09:43:17;;;;;;;9.00;7.43;;;;;;;26.95;49.58;101228.19;4987316;28;97279;-82
2023/06/29 09:45:43;;;;;;;11.47;8.07;;;;;;;27.02;49.38;101226.56;4995955;28;96990;-82
2023/06/29 09:48:11;;;;;;;16.33;9.07;;;;;;;27.00;49.21;101232.78;4988530;28;100488;-83
2023/06/29 09:50:38;;;;;;;17.13;9.00;;;;;;;27.01;49.08;101233.53;4990201;28;99365;-84
2023/06/29 09:53:09;;;;;;;9.80;8.57;;;;;;;26.98;49.01;101231.88;4997796;28;96766;-82
2023/06/29 09:55:37;;;;;;;10.60;8.60;;;;;;;27.02;49.07;101230.09;5001870;28;96580;-82
2023/06/29 09:58:03;;;;;;;10.13;8.50;;;;;;;27.04;48.81;101235.91;4987868;28;100167;-82
2023/06/29 10:00:29;;;;;;;11.37;9.27;;;;;;;27.11;48.90;101246.31;4997352;28;98091;-83
2023/06/29 10:02:55;;;;;;;11.30;8.93;;;;;;;27.15;48.69;101238.13;5003181;28;96876;-83
2023/06/29 10:05:21;;;;;;;12.27;8.73;;;;;;;27.24;48.70;101236.63;4997915;28;96981;-80
2023/06/29 10:07:47;;;;;;;11.63;8.70;;;;;;;27.36;48.55;101237.56;5001262;28;97970;-82
2023/06/29 10:10:15;;;;;;;13.20;9.93;;;;;;;27.39;48.22;101230.72;5001582;28;97837;-83
2023/06/29 10:12:40;;;;;;;12.43;8.87;;;;;;;27.34;48.42;101228.91;4986267;28;97163;-82
2023/06/29 10:15:11;;;;;;;10.07;8.73;;;;;;;27.36;48.44;101226.25;4999743;28;97010;-84
2023/06/29 10:18:01;;;;;;;11.10;9.70;;;;;;;27.42;48.12;101218.19;4986489;28;99973;-82
2023/06/29 10:20:30;;;;;;;10.80;8.90;;;;;;;27.38;48.28;101220.75;4984684;28;100473;-83
2023/06/29 10:22:59;;;;;;;13.57;8.43;;;;;;;27.36;48.01;101224.19;4995285;28;98245;-83
2023/06/29 10:25:26;;;;;;;11.77;8.80;;;;;;;27.35;48.07;101217.03;4996441;28;97306;-83
2023/06/29 10:27:54;;;;;;;9.93;8.07;;;;;;;27.42;48.19;101210.47;4984174;28;100121;-83
2023/06/29 10:30:21;;;;;;;10.53;8.87;;;;;;;27.46;48.10;101210.00;4993391;28;96805;-82
2023/06/29 10:32:50;;;;;;;11.33;8.67;;;;;;;27.53;47.97;101200.63;4998841;28;97256;-82
2023/06/29 10:35:16;;;;;;;9.73;8.70;;;;;;;27.58;47.99;101207.31;4997816;28;97055;-83
2023/06/29 10:37:47;;;;;;;11.83;9.63;;;;;;;27.63;47.83;101192.84;4994554;28;97754;-83
2023/06/29 10:40:25;;;;;;;10.67;9.57;;;;;;;27.66;47.22;101197.31;4991098;28;99404;-82
2023/06/29 10:42:55;;;;;;;10.23;9.03;;;;;;;27.62;47.51;101228.13;4980912;28;97025;-82
2023/06/29 10:45:21;;;;;;;9.53;8.50;;;;;;;27.66;47.74;101202.97;4986603;28;97042;-83
2023/06/29 10:47:55;;;;;;;14.97;10.20;;;;;;;27.76;47.55;101197.28;4989402;28;99225;-82
2023/06/29 10:50:24;;;;;;;12.27;9.83;;;;;;;27.85;47.45;101191.56;4983870;28;99337;-80
2023/06/29 10:52:50;;;;;;;13.57;9.03;;;;;;;27.90;47.32;101203.91;4983633;28;97311;-83
2023/06/29 10:55:23;;;;;;;12.03;8.50;;;;;;;28.05;47.24;101203.56;5002006;28;97300;-84
2023/06/29 10:57:54;;;;;;;12.57;9.07;;;;;;;28.19;47.05;101182.66;4997554;28;98913;-83
2023/06/29 11:00:20;;;;;;;8.87;7.50;;;;;;;28.27;46.89;101182.47;4997729;28;98058;-83
2023/06/29 11:02:50;;;;;;;12.43;9.50;;;;;;;28.31;46.30;101196.88;5001632;28;97084;-82
2023/06/29 11:05:20;;;;;;;11.97;8.57;;;;;;;28.38;46.64;101189.53;4988603;28;97093;-83
2023/06/29 11:07:52;;;;;;;11.27;8.47;;;;;;;28.36;45.50;101175.25;4985867;28;101507;-84
2023/06/29 11:10:22;;;;;;;10.20;8.47;;;;;;;28.32;46.36;101186.31;4998456;28;97233;-83
2023/06/29 11:12:54;;;;;;;10.43;7.83;;;;;;;28.24;46.45;101180.09;5002465;28;97296;-83
2023/06/29 11:15:19;;;;;;;10.80;8.00;;;;;;;28.19;46.64;101193.25;4999633;28;97583;-84
2023/06/29 11:17:48;;;;;;;9.50;7.97;;;;;;;28.23;46.55;101182.19;5007277;28;98953;-83